createdAt,value
2019-01-16T00:00:20.295Z,79.45
2019-01-16T00:02:53.491Z,79.12
2019-01-16T00:05:29.762Z,78.89
2019-01-16T00:08:05.756Z,79.21
2019-01-16T00:10:39.091Z,79.14
2019-01-16T00:13:12.030Z,79.10
2019-01-16T00:15:48.132Z,79.26
2019-01-16T00:18:30.585Z,79.36
2019-01-16T00:21:00.873Z,79.05
2019-01-16T00:23:31.146Z,79.11
2019-01-16T00:26:04.394Z,79.24
2019-01-16T00:28:34.686Z,79.54
2019-01-16T00:31:04.937Z,79.47
2019-01-16T00:33:35.212Z,79.80
2019-01-16T00:36:08.703Z,79.40
2019-01-16T00:38:51.003Z,79.62
2019-01-16T00:41:33.678Z,79.68
2019-01-16T00:44:07.046Z,79.85
2019-01-16T00:46:43.583Z,80.07
2019-01-16T00:49:20.153Z,80.33
2019-01-16T00:51:53.648Z,80.62
2019-01-16T00:54:26.644Z,80.73
2019-01-16T00:57:02.698Z,80.67
2019-01-16T00:59:49.423Z,80.73
2019-01-16T01:02:35.886Z,80.52
2019-01-16T01:05:17.359Z,80.26
2019-01-16T01:07:50.472Z,80.16
2019-01-16T01:10:20.745Z,79.43
2019-01-16T01:12:50.995Z,79.18
2019-01-16T01:15:27.528Z,78.60
2019-01-16T01:17:57.793Z,78.05
2019-01-16T01:20:44.274Z,77.83
2019-01-16T01:23:29.712Z,77.30
2019-01-16T01:26:08.914Z,77.22
2019-01-16T01:28:44.966Z,76.65
2019-01-16T01:31:30.695Z,76.13
2019-01-16T01:34:13.078Z,75.87
2019-01-16T01:36:43.449Z,75.28
2019-01-16T01:39:16.477Z,74.82
2019-01-16T01:41:46.744Z,75.17
2019-01-16T01:44:17.021Z,74.99
2019-01-16T01:46:50.149Z,74.77
2019-01-16T01:49:26.631Z,74.67
2019-01-16T01:51:56.893Z,74.67
2019-01-16T01:54:33.208Z,74.46
2019-01-16T01:57:19.740Z,74.46
2019-01-16T01:59:53.089Z,74.28
2019-01-16T02:02:23.350Z,73.30
2019-01-16T02:05:02.415Z,73.30
2019-01-16T02:07:47.744Z,73.33
2019-01-16T02:10:26.892Z,73.09
2019-01-16T02:13:09.248Z,72.99
2019-01-16T02:15:55.939Z,72.80
2019-01-16T02:18:28.883Z,72.99
2019-01-16T02:21:15.776Z,72.79
2019-01-16T02:23:55.150Z,72.94
2019-01-16T02:26:41.821Z,73.28
2019-01-16T02:29:24.080Z,72.99
2019-01-16T02:32:09.331Z,73.07
2019-01-16T02:34:39.577Z,73.14
2019-01-16T02:37:26.345Z,72.73
2019-01-16T02:40:12.914Z,72.08
2019-01-16T02:42:49.478Z,71.51
2019-01-16T02:45:22.685Z,71.01
2019-01-16T02:47:59.531Z,70.52
2019-01-16T02:50:39.012Z,70.04
2019-01-16T02:53:09.343Z,69.97
2019-01-16T02:55:57.527Z,69.93
2019-01-16T02:58:30.904Z,69.54
2019-01-16T03:01:04.340Z,69.78
2019-01-16T03:03:40.932Z,69.93
2019-01-16T03:06:13.633Z,69.85
2019-01-16T03:08:43.884Z,70.04
2019-01-16T03:11:20.240Z,70.04
2019-01-16T03:14:06.764Z,70.45
2019-01-16T03:16:43.283Z,71.15
2019-01-16T03:19:16.387Z,71.15
2019-01-16T03:21:52.746Z,71.53
2019-01-16T03:24:29.141Z,71.83
2019-01-16T03:26:59.584Z,71.95
2019-01-16T03:29:35.888Z,72.22
2019-01-16T03:32:06.324Z,72.58
2019-01-16T03:34:45.637Z,72.76
2019-01-16T03:37:32.152Z,72.36
2019-01-16T03:40:05.392Z,72.36
2019-01-16T03:42:35.663Z,72.66
2019-01-16T03:45:07.421Z,72.14
2019-01-16T03:47:46.793Z,72.13
2019-01-16T03:50:33.529Z,72.20
2019-01-16T03:53:03.818Z,72.07
2019-01-16T03:55:50.538Z,72.30
2019-01-16T03:58:20.814Z,72.15
2019-01-16T04:00:53.798Z,71.71
2019-01-16T04:03:26.982Z,71.74
2019-01-16T04:06:03.029Z,71.45
2019-01-16T04:08:51.712Z,71.45
2019-01-16T04:11:27.748Z,71.75
2019-01-16T04:13:58.041Z,72.28
2019-01-16T04:16:34.517Z,72.81
2019-01-16T04:19:07.585Z,73.12
2019-01-16T04:21:37.854Z,73.60
2019-01-16T04:24:08.107Z,73.86
2019-01-16T04:26:47.253Z,74.43
2019-01-16T04:29:26.862Z,74.75
2019-01-16T04:32:15.427Z,74.92
2019-01-16T04:35:01.001Z,75.41
2019-01-16T04:37:46.749Z,75.63
2019-01-16T04:40:33.257Z,75.89
2019-01-16T04:43:09.840Z,76.29
2019-01-16T04:45:40.103Z,76.50
2019-01-16T04:48:16.117Z,76.67
2019-01-16T04:50:46.390Z,76.77
2019-01-16T04:53:28.468Z,76.67
2019-01-16T04:56:15.255Z,76.38
2019-01-16T04:59:03.533Z,76.53
2019-01-16T05:01:46.101Z,76.58
2019-01-16T05:04:16.375Z,76.67
2019-01-16T05:06:46.635Z,76.79
2019-01-16T05:09:32.192Z,76.79
2019-01-16T05:12:02.466Z,76.96
2019-01-16T05:14:32.724Z,76.69
2019-01-16T05:17:03.047Z,76.43
2019-01-16T05:19:42.408Z,76.38
2019-01-16T05:22:15.654Z,76.65
2019-01-16T05:24:52.131Z,76.55
2019-01-16T05:27:40.703Z,76.83
2019-01-16T05:30:29.778Z,77.24
2019-01-16T05:33:05.820Z,77.51
2019-01-16T05:35:39.167Z,77.83
2019-01-16T05:38:25.908Z,78.35
2019-01-16T05:41:11.236Z,78.46
2019-01-16T05:43:57.587Z,78.82
2019-01-16T05:46:33.984Z,79.19
2019-01-16T05:49:10.304Z,79.47
2019-01-16T05:51:40.578Z,79.83
2019-01-16T05:54:29.447Z,79.67
2019-01-16T05:56:59.926Z,79.02
2019-01-16T05:59:42.538Z,78.70
2019-01-16T06:02:30.957Z,78.69
2019-01-16T06:05:07.294Z,78.61
2019-01-16T06:07:54.029Z,78.03
2019-01-16T06:10:24.371Z,77.01
2019-01-16T06:13:11.219Z,77.30
2019-01-16T06:15:57.765Z,77.46
2019-01-16T06:18:28.032Z,76.26
2019-01-16T06:21:20.403Z,73.85
2019-01-16T06:23:50.667Z,71.41
2019-01-16T06:26:26.650Z,69.69
2019-01-16T06:29:13.103Z,68.68
2019-01-16T06:32:02.806Z,69.17
2019-01-16T06:34:36.075Z,68.30
2019-01-16T06:37:06.476Z,66.50
2019-01-16T06:39:42.784Z,65.08
2019-01-16T06:42:31.249Z,63.91
2019-01-16T06:45:10.481Z,62.93
2019-01-16T06:47:55.779Z,59.26
2019-01-16T06:50:28.903Z,59.06
2019-01-16T06:52:59.166Z,58.65
2019-01-16T06:55:29.412Z,57.85
2019-01-16T06:58:16.153Z,58.38
2019-01-16T07:00:49.113Z,60.15
2019-01-16T07:03:35.863Z,61.39
2019-01-16T07:06:22.320Z,62.47
2019-01-16T07:08:58.961Z,62.82
2019-01-16T07:11:45.749Z,63.63
2019-01-16T07:14:21.805Z,64.34
2019-01-16T07:16:57.840Z,64.93
2019-01-16T07:19:44.668Z,66.08
2019-01-16T07:22:33.267Z,65.69
2019-01-16T07:25:06.624Z,62.43
2019-01-16T07:27:48.948Z,58.72
2019-01-16T07:30:19.336Z,57.25
2019-01-16T07:33:01.661Z,54.65
2019-01-16T07:35:48.218Z,54.22
2019-01-16T07:38:21.174Z,53.79
2019-01-16T07:40:51.418Z,52.82
2019-01-16T07:43:21.701Z,51.92
2019-01-16T07:46:07.000Z,50.39
2019-01-16T07:48:46.315Z,50.10
2019-01-16T07:51:22.562Z,50.00
2019-01-16T07:54:05.119Z,50.03
2019-01-16T07:56:44.373Z,50.36
2019-01-16T07:59:21.879Z,49.09
2019-01-16T08:01:58.193Z,49.21
2019-01-16T08:04:28.697Z,49.46
2019-01-16T08:06:58.951Z,50.29
2019-01-16T08:09:31.908Z,51.20
2019-01-16T08:12:11.271Z,51.50
2019-01-16T08:14:53.956Z,51.55
2019-01-16T08:17:41.252Z,51.32
2019-01-16T08:20:25.100Z,51.85
2019-01-16T08:22:55.847Z,52.95
2019-01-16T08:25:29.069Z,53.17
2019-01-16T08:28:05.392Z,53.78
2019-01-16T08:30:35.675Z,53.49
2019-01-16T08:33:21.095Z,53.38
2019-01-16T08:35:53.927Z,52.82
2019-01-16T08:38:26.950Z,52.16
2019-01-16T08:40:57.244Z,51.84
2019-01-16T08:43:39.790Z,51.81
2019-01-16T08:46:12.988Z,50.00
2019-01-16T08:49:01.871Z,50.47
2019-01-16T08:51:41.034Z,51.10
2019-01-16T08:54:17.251Z,50.33
2019-01-16T08:56:47.542Z,49.89
2019-01-16T08:59:17.789Z,49.67
2019-01-16T09:01:48.311Z,48.59
2019-01-16T09:04:36.719Z,49.32
2019-01-16T09:07:10.200Z,48.12
2019-01-16T09:09:52.706Z,47.29
2019-01-16T09:12:29.045Z,47.13
2019-01-16T09:15:15.918Z,46.73
2019-01-16T09:17:58.201Z,46.41
2019-01-16T09:20:31.177Z,46.44
2019-01-16T09:23:01.443Z,47.15
2019-01-16T09:25:40.901Z,46.28
2019-01-16T09:28:23.266Z,46.81
2019-01-16T09:30:59.614Z,47.07
2019-01-16T09:33:49.094Z,46.84
2019-01-16T09:36:31.626Z,46.91
2019-01-16T09:39:11.114Z,46.31
2019-01-16T09:41:41.417Z,45.35
2019-01-16T09:44:17.441Z,45.50
2019-01-16T09:46:56.889Z,45.37
2019-01-16T09:49:36.202Z,45.09
2019-01-16T09:52:06.810Z,44.66
2019-01-16T09:54:40.072Z,44.28
2019-01-16T09:57:10.341Z,43.95
2019-01-16T09:59:49.574Z,44.61
2019-01-16T10:02:25.837Z,44.40
2019-01-16T10:04:59.212Z,44.29
2019-01-16T10:07:29.471Z,44.02
2019-01-16T10:10:16.427Z,44.00
2019-01-16T10:13:03.136Z,44.68
2019-01-16T10:15:39.305Z,44.70
2019-01-16T10:18:15.363Z,44.30
2019-01-16T10:20:55.870Z,44.68
2019-01-16T10:23:44.644Z,44.51
2019-01-16T10:26:27.278Z,44.63
2019-01-16T10:28:57.541Z,43.66
2019-01-16T10:31:30.747Z,43.30
2019-01-16T10:34:13.064Z,43.59
2019-01-16T10:36:55.816Z,42.99
2019-01-16T10:39:26.120Z,44.06
2019-01-16T10:42:14.744Z,43.49
2019-01-16T10:44:51.101Z,43.51
2019-01-16T10:47:27.434Z,44.25
2019-01-16T10:50:03.610Z,44.63
2019-01-16T10:52:36.795Z,44.59
2019-01-16T10:55:07.543Z,44.66
2019-01-16T10:57:52.866Z,44.81
2019-01-16T11:00:39.319Z,44.38
2019-01-16T11:03:18.541Z,44.36
2019-01-16T11:06:04.174Z,44.37
2019-01-16T11:08:40.446Z,44.63
2019-01-16T11:11:26.057Z,44.15
2019-01-16T11:13:56.382Z,44.30
2019-01-16T11:16:32.784Z,45.05
2019-01-16T11:19:18.118Z,44.63
2019-01-16T11:21:57.233Z,44.93
2019-01-16T11:24:30.263Z,45.16
2019-01-16T11:27:03.370Z,45.52
2019-01-16T11:29:36.829Z,44.75
2019-01-16T11:32:19.115Z,44.58
2019-01-16T11:34:52.755Z,44.77
2019-01-16T11:37:32.045Z,45.32
2019-01-16T11:40:14.273Z,45.27
2019-01-16T11:42:56.713Z,45.06
2019-01-16T11:45:45.803Z,45.16
2019-01-16T11:48:32.281Z,45.81
2019-01-16T11:51:05.355Z,44.82
2019-01-16T11:53:38.428Z,45.68
2019-01-16T11:56:11.998Z,45.48
2019-01-16T11:58:42.262Z,45.51
2019-01-16T12:01:12.528Z,45.71
2019-01-16T12:04:01.152Z,45.92
2019-01-16T12:06:31.409Z,46.28
2019-01-16T12:09:07.496Z,46.21
2019-01-16T12:11:37.721Z,46.01
2019-01-16T12:14:17.108Z,45.92
2019-01-16T12:16:53.212Z,45.54
2019-01-16T12:19:23.514Z,46.05
2019-01-16T12:22:09.964Z,45.11
2019-01-16T12:24:49.151Z,45.79
2019-01-16T12:27:19.444Z,45.98
2019-01-16T12:29:49.693Z,45.61
2019-01-16T12:32:23.109Z,45.97
2019-01-16T12:35:08.673Z,45.95
2019-01-16T12:37:47.821Z,46.14
2019-01-16T12:40:34.237Z,45.99
2019-01-16T12:43:04.527Z,46.27
2019-01-16T12:45:34.795Z,46.03
2019-01-16T12:48:11.209Z,46.00
2019-01-16T12:50:41.469Z,46.16
2019-01-16T12:53:14.610Z,46.08
2019-01-16T12:56:01.430Z,45.88
2019-01-16T12:58:40.618Z,46.78
2019-01-16T13:01:22.768Z,46.69
2019-01-16T13:03:56.105Z,46.75
2019-01-16T13:06:41.747Z,47.18
2019-01-16T13:09:24.068Z,47.05
2019-01-16T13:12:06.873Z,47.47
2019-01-16T13:14:42.898Z,47.90
2019-01-16T13:17:13.191Z,48.33
2019-01-16T13:19:46.377Z,48.73
2019-01-16T13:22:16.645Z,48.19
2019-01-16T13:24:59.245Z,48.31
2019-01-16T13:27:45.985Z,48.88
2019-01-16T13:30:22.403Z,48.59
2019-01-16T13:33:07.938Z,48.73
2019-01-16T13:35:44.361Z,49.06
2019-01-16T13:38:23.827Z,49.24
2019-01-16T13:41:03.218Z,49.29
2019-01-16T13:43:39.438Z,49.42
2019-01-16T13:46:15.555Z,49.56
2019-01-16T13:49:00.804Z,49.62
2019-01-16T13:51:46.117Z,49.70
2019-01-16T13:54:12.095Z,49.60
2019-01-16T13:56:45.778Z,49.98
2019-01-16T13:59:32.283Z,50.11
2019-01-16T14:02:11.640Z,49.58
2019-01-16T14:04:58.094Z,49.84
2019-01-16T14:07:37.408Z,49.89
2019-01-16T14:10:19.272Z,50.25
2019-01-16T14:12:58.528Z,50.34
2019-01-16T14:15:47.287Z,50.28
2019-01-16T14:18:26.701Z,50.42
2019-01-16T14:21:13.352Z,50.89
2019-01-16T14:23:52.971Z,50.55
2019-01-16T14:26:29.474Z,50.77
2019-01-16T14:29:11.906Z,51.22
2019-01-16T14:31:41.069Z,51.09
2019-01-16T14:34:14.223Z,50.97
2019-01-16T14:36:59.500Z,50.83
2019-01-16T14:39:38.789Z,51.77
2019-01-16T14:42:24.163Z,51.49
2019-01-16T14:44:54.478Z,51.70
2019-01-16T14:47:41.048Z,52.22
2019-01-16T14:50:15.515Z,52.39
2019-01-16T14:52:45.883Z,52.91
2019-01-16T14:55:19.221Z,53.21
2019-01-16T14:57:52.476Z,53.85
2019-01-16T15:00:39.316Z,53.90
2019-01-16T15:03:18.682Z,53.62
2019-01-16T15:06:07.114Z,54.43
2019-01-16T15:08:37.420Z,54.61
2019-01-16T15:11:07.687Z,55.20
2019-01-16T15:13:50.296Z,55.55
2019-01-16T15:16:20.575Z,55.62
2019-01-16T15:19:02.874Z,55.60
2019-01-16T15:21:48.428Z,55.73
2019-01-16T15:24:24.748Z,55.63
2019-01-16T15:27:03.857Z,56.21
2019-01-16T15:29:50.598Z,55.84
2019-01-16T15:32:23.893Z,56.03
2019-01-16T15:34:54.178Z,56.31
2019-01-16T15:37:27.348Z,56.82
2019-01-16T15:40:00.594Z,56.53
2019-01-16T15:42:46.020Z,56.52
2019-01-16T15:45:16.303Z,56.81
2019-01-16T15:47:46.570Z,56.65
2019-01-16T15:50:22.987Z,56.65
2019-01-16T15:53:05.357Z,56.69
2019-01-16T15:55:53.698Z,56.94
2019-01-16T15:58:23.954Z,56.80
2019-01-16T16:00:57.342Z,57.08
2019-01-16T16:03:33.803Z,57.35
2019-01-16T16:06:20.399Z,57.66
2019-01-16T16:09:02.930Z,57.93
2019-01-16T16:11:33.187Z,57.66
2019-01-16T16:14:06.219Z,57.32
2019-01-16T16:16:39.384Z,57.72
2019-01-16T16:19:09.645Z,57.78
2019-01-16T16:21:42.951Z,57.91
2019-01-16T16:24:31.411Z,57.43
2019-01-16T16:27:01.731Z,57.11
2019-01-16T16:29:38.145Z,57.57
2019-01-16T16:32:08.448Z,57.22
2019-01-16T16:34:38.740Z,57.24
2019-01-16T16:37:08.996Z,56.84
2019-01-16T16:39:45.118Z,56.81
2019-01-16T16:42:30.177Z,56.70
2019-01-16T16:45:09.514Z,56.67
2019-01-16T16:47:42.473Z,56.49
2019-01-16T16:50:12.933Z,56.86
2019-01-16T16:52:59.955Z,56.60
2019-01-16T16:55:46.680Z,56.87
2019-01-16T16:58:22.683Z,56.69
2019-01-16T17:00:58.680Z,56.40
2019-01-16T17:03:45.206Z,56.26
2019-01-16T17:06:18.232Z,56.20
2019-01-16T17:08:54.641Z,56.34
2019-01-16T17:11:27.870Z,55.86
2019-01-16T17:14:01.070Z,55.19
2019-01-16T17:16:37.377Z,54.99
2019-01-16T17:19:13.739Z,55.00
2019-01-16T17:21:53.021Z,54.65
2019-01-16T17:24:23.317Z,54.73
2019-01-16T17:26:56.614Z,54.80
2019-01-16T17:29:29.768Z,54.58
2019-01-16T17:32:02.769Z,54.53
2019-01-16T17:34:35.758Z,54.28
2019-01-16T17:37:11.794Z,54.45
2019-01-16T17:39:45.130Z,54.79
2019-01-16T17:42:15.390Z,54.25
2019-01-16T17:44:55.176Z,54.28
2019-01-16T17:47:25.432Z,54.34
2019-01-16T17:49:55.690Z,53.33
2019-01-16T17:52:28.698Z,53.92
2019-01-16T17:55:01.899Z,54.07
2019-01-16T17:57:48.651Z,53.94
2019-01-16T18:00:21.448Z,54.20
2019-01-16T18:02:54.706Z,54.05
2019-01-16T18:05:31.081Z,54.43
2019-01-16T18:08:01.378Z,54.32
2019-01-16T18:10:43.638Z,54.52
2019-01-16T18:13:17.036Z,54.57
2019-01-16T18:15:53.247Z,54.59
2019-01-16T18:18:26.394Z,54.86
2019-01-16T18:21:14.528Z,54.88
2019-01-16T18:23:44.839Z,55.08
2019-01-16T18:26:18.182Z,55.15
2019-01-16T18:28:54.458Z,55.28
2019-01-16T18:31:36.818Z,55.20
2019-01-16T18:34:07.118Z,54.93
2019-01-16T18:36:53.953Z,53.68
2019-01-16T18:39:24.239Z,53.15
2019-01-16T18:42:10.770Z,52.93
2019-01-16T18:44:56.633Z,52.95
2019-01-16T18:47:29.819Z,53.15
2019-01-16T18:50:08.896Z,53.16
2019-01-16T18:52:54.210Z,53.08
2019-01-16T18:55:27.633Z,53.07
2019-01-16T18:58:00.969Z,53.45
2019-01-16T19:00:31.218Z,53.84
2019-01-16T19:03:04.267Z,53.50
2019-01-16T19:05:40.637Z,52.95
2019-01-16T19:08:27.516Z,53.30
2019-01-16T19:11:00.523Z,53.65
2019-01-16T19:13:49.404Z,53.75
2019-01-16T19:16:25.669Z,54.06
2019-01-16T19:18:55.978Z,54.28
2019-01-16T19:21:35.562Z,54.47
2019-01-16T19:24:05.857Z,54.74
2019-01-16T19:26:39.104Z,55.14
2019-01-16T19:29:18.640Z,54.70
2019-01-16T19:32:05.488Z,54.28
2019-01-16T19:34:38.456Z,54.46
2019-01-16T19:37:12.220Z,54.57
2019-01-16T19:39:45.509Z,54.70
2019-01-16T19:42:32.363Z,54.89
2019-01-16T19:45:05.642Z,55.30
2019-01-16T19:47:35.907Z,55.28
2019-01-16T19:50:24.230Z,55.12
2019-01-16T19:52:54.480Z,54.85
2019-01-16T19:55:30.532Z,55.06
2019-01-16T19:58:00.799Z,55.36
2019-01-16T20:00:43.304Z,55.12
2019-01-16T20:03:25.577Z,55.14
2019-01-16T20:06:04.825Z,55.28
2019-01-16T20:08:35.096Z,54.92
2019-01-16T20:11:08.327Z,54.97
2019-01-16T20:13:50.931Z,54.90
2019-01-16T20:16:27.104Z,54.85
2019-01-16T20:19:03.557Z,54.87
2019-01-16T20:24:20.553Z,55.20
2019-01-16T20:26:56.821Z,54.99
2019-01-16T20:29:42.211Z,55.00
2019-01-16T20:32:24.283Z,54.93
2019-01-16T20:34:57.612Z,54.08
2019-01-16T20:37:42.890Z,54.21
2019-01-16T20:40:19.972Z,54.33
2019-01-16T20:42:50.246Z,55.75
2019-01-16T20:45:20.517Z,57.44
2019-01-16T20:47:59.799Z,60.01
2019-01-16T20:50:46.630Z,61.51
2019-01-16T20:53:17.629Z,63.64
2019-01-16T20:55:57.081Z,65.71
2019-01-16T20:58:39.412Z,66.33
2019-01-16T21:01:09.679Z,66.59
2019-01-16T21:03:56.273Z,67.04
2019-01-16T21:06:26.544Z,68.69
2019-01-16T21:08:56.815Z,68.56
2019-01-16T21:11:27.144Z,69.08
2019-01-16T21:14:00.042Z,69.33
2019-01-16T21:16:36.375Z,69.81
2019-01-16T21:19:16.236Z,70.26
2019-01-16T21:21:55.695Z,70.57
2019-01-16T21:24:25.971Z,70.05
2019-01-16T21:26:59.435Z,70.71
2019-01-16T21:29:47.911Z,70.66
2019-01-16T21:32:20.894Z,70.69
2019-01-16T21:34:51.156Z,70.81
2019-01-16T21:37:30.527Z,70.81
2019-01-16T21:40:17.300Z,71.35
2019-01-16T21:42:53.555Z,71.93
2019-01-16T21:45:29.963Z,72.24
2019-01-16T21:48:16.955Z,72.37
2019-01-16T21:50:52.970Z,73.23
2019-01-16T21:53:32.379Z,71.67
2019-01-16T21:56:14.948Z,71.39
2019-01-16T21:58:45.485Z,71.23
2019-01-16T22:01:31.120Z,71.18
2019-01-16T22:04:10.257Z,71.87
2019-01-16T22:06:40.562Z,71.77
2019-01-16T22:09:15.191Z,72.51
2019-01-16T22:11:43.097Z,72.54
2019-01-16T22:14:25.417Z,72.56
2019-01-16T22:16:58.906Z,72.91
2019-01-16T22:19:29.190Z,72.97
2019-01-16T22:21:59.447Z,73.04
2019-01-16T22:24:35.776Z,73.42
2019-01-16T22:27:13.224Z,73.25
2019-01-16T22:29:43.533Z,73.76
2019-01-16T22:32:31.927Z,73.91
2019-01-16T22:35:02.512Z,73.71
2019-01-16T22:37:35.593Z,74.27
2019-01-16T22:40:07.764Z,74.32
2019-01-16T22:42:54.167Z,73.65
2019-01-16T22:45:39.573Z,74.22
2019-01-16T22:48:29.284Z,73.98
2019-01-16T22:51:02.605Z,74.30
2019-01-16T22:53:55.507Z,74.46
2019-01-16T22:56:37.769Z,74.26
2019-01-16T22:59:20.178Z,74.20
2019-01-16T23:01:50.718Z,74.06
2019-01-16T23:04:24.120Z,74.31
2019-01-16T23:07:00.977Z,75.01
2019-01-16T23:09:43.376Z,75.21
2019-01-16T23:12:16.454Z,75.72
2019-01-16T23:14:49.821Z,76.62
2019-01-16T23:17:26.495Z,76.78
2019-01-16T23:20:09.170Z,76.34
2019-01-16T23:22:39.478Z,76.34
2019-01-16T23:25:12.535Z,76.31
2019-01-16T23:27:43.004Z,76.33
2019-01-16T23:30:16.259Z,76.54
2019-01-16T23:32:58.315Z,76.65
2019-01-16T23:35:44.804Z,76.85
2019-01-16T23:38:15.080Z,76.95
2019-01-16T23:40:48.294Z,76.50
2019-01-16T23:43:30.753Z,77.70
2019-01-16T23:46:19.529Z,77.70
2019-01-16T23:48:55.974Z,77.67
2019-01-16T23:51:42.818Z,77.93
2019-01-16T23:54:18.874Z,77.99
2019-01-16T23:56:54.881Z,79.09
2019-01-16T23:59:31.191Z,78.80
